sensor_id;sensor_type;location;lat;lon;timestamp;noise_LAeq;noise_LA_min;noise_LA_max;noise_LA01;noise_LA95
73342;Laerm;61578;52.002;5.468;2023-04-06T00:00:13;41.59;39.60;44.19;;
73342;Laerm;61578;52.002;5.468;2023-04-06T00:00:45;41.57;39.61;44.62;;
73342;Laerm;61578;52.002;5.468;2023-04-06T00:01:16;41.50;39.33;44.00;;
73342;Laerm;61578;52.002;5.468;2023-04-06T00:01:46;41.55;39.58;43.95;;
73342;Laerm;61578;52.002;5.468;2023-04-06T00:02:17;41.47;39.66;44.00;;
73342;Laerm;61578;52.002;5.468;2023-04-06T00:02:48;41.59;39.41;44.22;;
73342;Laerm;61578;52.002;5.468;2023-04-06T00:03:18;41.40;39.38;43.65;;
73342;Laerm;61578;52.002;5.468;2023-04-06T00:03:52;41.48;39.71;43.73;;
73342;Laerm;61578;52.002;5.468;2023-04-06T00:04:23;41.60;39.24;44.67;;
73342;Laerm;61578;52.002;5.468;2023-04-06T00:04:54;41.58;39.48;43.76;;
73342;Laerm;61578;52.002;5.468;2023-04-06T00:05:25;41.52;39.37;44.06;;
73342;Laerm;61578;52.002;5.468;2023-04-06T00:06:00;41.57;39.80;44.15;;
73342;Laerm;61578;52.002;5.468;2023-04-06T00:06:34;41.49;39.46;44.22;;
73342;Laerm;61578;52.002;5.468;2023-04-06T00:07:05;41.54;39.70;44.44;;
73342;Laerm;61578;52.002;5.468;2023-04-06T00:07:36;41.52;39.54;44.01;;
73342;Laerm;61578;52.002;5.468;2023-04-06T00:08:10;41.53;39.54;43.62;;
73342;Laerm;61578;52.002;5.468;2023-04-06T00:08:41;41.41;39.59;43.38;;
73342;Laerm;61578;52.002;5.468;2023-04-06T00:09:12;41.54;39.54;44.36;;
73342;Laerm;61578;52.002;5.468;2023-04-06T00:09:43;41.60;39.58;44.55;;
73342;Laerm;61578;52.002;5.468;2023-04-06T00:10:16;41.43;39.67;44.37;;
73342;Laerm;61578;52.002;5.468;2023-04-06T00:10:47;41.46;39.15;44.36;;
73342;Laerm;61578;52.002;5.468;2023-04-06T00:11:19;41.53;39.66;43.94;;
73342;Laerm;61578;52.002;5.468;2023-04-06T00:11:50;41.56;39.76;44.09;;
73342;Laerm;61578;52.002;5.468;2023-04-06T00:12:27;41.45;39.59;43.89;;
73342;Laerm;61578;52.002;5.468;2023-04-06T00:12:58;41.35;39.69;43.61;;
73342;Laerm;61578;52.002;5.468;2023-04-06T00:13:29;41.57;39.49;43.86;;
73342;Laerm;61578;52.002;5.468;2023-04-06T00:14:00;41.53;39.51;43.87;;
73342;Laerm;61578;52.002;5.468;2023-04-06T00:14:31;41.56;39.65;44.28;;
73342;Laerm;61578;52.002;5.468;2023-04-06T00:15:02;41.52;39.70;44.26;;
73342;Laerm;61578;52.002;5.468;2023-04-06T00:15:36;41.63;39.61;44.34;;
73342;Laerm;61578;52.002;5.468;2023-04-06T00:16:10;41.61;39.59;44.13;;
73342;Laerm;61578;52.002;5.468;2023-04-06T00:16:41;41.38;39.62;44.32;;
73342;Laerm;61578;52.002;5.468;2023-04-06T00:17:11;41.56;39.73;44.39;;
73342;Laerm;61578;52.002;5.468;2023-04-06T00:17:42;41.53;39.42;43.55;;
73342;Laerm;61578;52.002;5.468;2023-04-06T00:18:13;41.54;39.57;45.08;;
73342;Laerm;61578;52.002;5.468;2023-04-06T00:18:44;41.50;39.61;43.77;;
73342;Laerm;61578;52.002;5.468;2023-04-06T00:19:15;41.52;39.68;44.20;;
73342;Laerm;61578;52.002;5.468;2023-04-06T00:19:48;41.44;39.31;43.82;;
73342;Laerm;61578;52.002;5.468;2023-04-06T00:20:19;41.59;39.57;44.14;;
73342;Laerm;61578;52.002;5.468;2023-04-06T00:20:50;41.62;39.61;44.72;;
73342;Laerm;61578;52.002;5.468;2023-04-06T00:21:21;41.57;39.52;43.90;;
73342;Laerm;61578;52.002;5.468;2023-04-06T00:21:54;41.47;39.42;43.83;;
73342;Laerm;61578;52.002;5.468;2023-04-06T00:22:25;41.57;39.08;43.73;;
73342;Laerm;61578;52.002;5.468;2023-04-06T00:23:02;41.41;39.52;44.22;;
73342;Laerm;61578;52.002;5.468;2023-04-06T00:23:33;41.60;39.66;44.14;;
73342;Laerm;61578;52.002;5.468;2023-04-06T00:24:04;41.60;39.68;43.80;;
73342;Laerm;61578;52.002;5.468;2023-04-06T00:24:35;41.55;39.79;44.30;;
73342;Laerm;61578;52.002;5.468;2023-04-06T00:25:06;41.63;39.65;44.15;;
73342;Laerm;61578;52.002;5.468;2023-04-06T00:25:37;41.42;39.58;44.28;;
73342;Laerm;61578;52.002;5.468;2023-04-06T00:26:11;41.53;39.42;44.11;;
73342;Laerm;61578;52.002;5.468;2023-04-06T00:26:42;41.53;39.97;44.03;;
73342;Laerm;61578;52.002;5.468;2023-04-06T00:27:16;41.55;39.38;44.14;;
73342;Laerm;61578;52.002;5.468;2023-04-06T00:27:46;41.58;39.54;44.11;;
73342;Laerm;61578;52.002;5.468;2023-04-06T00:28:17;41.43;39.69;43.89;;
73342;Laerm;61578;52.002;5.468;2023-04-06T00:28:50;41.57;39.76;44.66;;
73342;Laerm;61578;52.002;5.468;2023-04-06T00:29:22;41.42;39.67;43.68;;
73342;Laerm;61578;52.002;5.468;2023-04-06T00:29:53;41.50;39.46;43.66;;
73342;Laerm;61578;52.002;5.468;2023-04-06T00:30:24;41.44;39.58;43.81;;
73342;Laerm;61578;52.002;5.468;2023-04-06T00:30:55;41.55;39.60;44.34;;
73342;Laerm;61578;52.002;5.468;2023-04-06T00:31:31;41.47;39.57;44.13;;
73342;Laerm;61578;52.002;5.468;2023-04-06T00:32:02;41.50;39.73;44.03;;
73342;Laerm;61578;52.002;5.468;2023-04-06T00:32:34;41.40;39.35;43.76;;
73342;Laerm;61578;52.002;5.468;2023-04-06T00:33:09;41.61;39.48;44.71;;
73342;Laerm;61578;52.002;5.468;2023-04-06T00:33:40;41.50;39.34;44.13;;
73342;Laerm;61578;52.002;5.468;2023-04-06T00:34:10;41.61;39.58;43.95;;
73342;Laerm;61578;52.002;5.468;2023-04-06T00:34:41;41.55;39.54;44.11;;
73342;Laerm;61578;52.002;5.468;2023-04-06T00:35:12;41.60;39.77;43.82;;
73342;Laerm;61578;52.002;5.468;2023-04-06T00:35:43;41.58;39.53;44.57;;
73342;Laerm;61578;52.002;5.468;2023-04-06T00:36:13;41.64;39.52;45.14;;
73342;Laerm;61578;52.002;5.468;2023-04-06T00:36:48;41.47;39.56;43.87;;
73342;Laerm;61578;52.002;5.468;2023-04-06T00:37:19;41.58;39.74;43.82;;
73342;Laerm;61578;52.002;5.468;2023-04-06T00:37:52;41.53;39.49;43.93;;
73342;Laerm;61578;52.002;5.468;2023-04-06T00:38:23;41.66;39.69;43.91;;
73342;Laerm;61578;52.002;5.468;2023-04-06T00:38:53;41.68;39.80;45.05;;
73342;Laerm;61578;52.002;5.468;2023-04-06T00:39:24;41.58;39.82;44.09;;
73342;Laerm;61578;52.002;5.468;2023-04-06T00:39:55;41.69;39.67;44.02;;
73342;Laerm;61578;52.002;5.468;2023-04-06T00:40:26;41.43;39.61;44.05;;
73342;Laerm;61578;52.002;5.468;2023-04-06T00:40:59;41.64;39.87;44.15;;
73342;Laerm;61578;52.002;5.468;2023-04-06T00:41:30;41.54;39.17;43.66;;
73342;Laerm;61578;52.002;5.468;2023-04-06T00:42:11;41.61;39.65;43.76;;
73342;Laerm;61578;52.002;5.468;2023-04-06T00:42:45;41.60;39.64;44.47;;
73342;Laerm;61578;52.002;5.468;2023-04-06T00:43:16;41.53;39.73;44.58;;
73342;Laerm;61578;52.002;5.468;2023-04-06T00:43:47;41.59;39.34;44.35;;
73342;Laerm;61578;52.002;5.468;2023-04-06T00:44:19;41.33;39.50;43.48;;
73342;Laerm;61578;52.002;5.468;2023-04-06T00:44:50;41.60;39.91;45.10;;
73342;Laerm;61578;52.002;5.468;2023-04-06T00:45:21;41.59;39.84;43.79;;
73342;Laerm;61578;52.002;5.468;2023-04-06T00:45:55;41.57;39.50;43.63;;
73342;Laerm;61578;52.002;5.468;2023-04-06T00:46:25;41.57;39.65;43.78;;
73342;Laerm;61578;52.002;5.468;2023-04-06T00:46:56;41.61;39.66;44.09;;
73342;Laerm;61578;52.002;5.468;2023-04-06T00:47:28;41.63;39.96;43.68;;
73342;Laerm;61578;52.002;5.468;2023-04-06T00:47:59;41.59;39.70;43.79;;
73342;Laerm;61578;52.002;5.468;2023-04-06T00:48:33;41.67;39.43;44.06;;
73342;Laerm;61578;52.002;5.468;2023-04-06T00:49:06;41.70;39.92;44.10;;
73342;Laerm;61578;52.002;5.468;2023-04-06T00:49:37;41.64;39.53;43.93;;
73342;Laerm;61578;52.002;5.468;2023-04-06T00:50:08;41.70;39.83;43.74;;
73342;Laerm;61578;52.002;5.468;2023-04-06T00:50:39;41.67;39.83;43.73;;
73342;Laerm;61578;52.002;5.468;2023-04-06T00:51:11;41.53;39.59;44.16;;
73342;Laerm;61578;52.002;5.468;2023-04-06T00:51:42;41.44;39.69;43.50;;
73342;Laerm;61578;52.002;5.468;2023-04-06T00:52:13;41.59;39.52;43.95;;
73342;Laerm;61578;52.002;5.468;2023-04-06T00:52:53;41.67;39.54;43.91;;
73342;Laerm;61578;52.002;5.468;2023-04-06T00:53:25;41.50;39.39;43.99;;
73342;Laerm;61578;52.002;5.468;2023-04-06T00:53:55;41.63;39.85;44.67;;
73342;Laerm;61578;52.002;5.468;2023-04-06T00:54:28;41.54;39.34;43.65;;
73342;Laerm;61578;52.002;5.468;2023-04-06T00:55:03;41.59;39.69;44.08;;
73342;Laerm;61578;52.002;5.468;2023-04-06T00:55:34;41.55;39.80;43.98;;
73342;Laerm;61578;52.002;5.468;2023-04-06T00:56:06;41.57;39.75;44.02;;
73342;Laerm;61578;52.002;5.468;2023-04-06T00:56:42;41.48;39.72;43.83;;
73342;Laerm;61578;52.002;5.468;2023-04-06T00:57:14;41.65;39.47;43.97;;
73342;Laerm;61578;52.002;5.468;2023-04-06T00:57:45;41.66;39.69;44.26;;
73342;Laerm;61578;52.002;5.468;2023-04-06T00:58:15;41.47;39.47;44.09;;
73342;Laerm;61578;52.002;5.468;2023-04-06T00:58:46;41.48;39.68;44.04;;
73342;Laerm;61578;52.002;5.468;2023-04-06T00:59:17;41.63;39.63;44.32;;
73342;Laerm;61578;52.002;5.468;2023-04-06T00:59:52;41.59;39.42;43.89;;
73342;Laerm;61578;52.002;5.468;2023-04-06T01:00:24;41.58;39.68;44.06;;
73342;Laerm;61578;52.002;5.468;2023-04-06T01:00:55;41.68;39.58;43.94;;
73342;Laerm;61578;52.002;5.468;2023-04-06T01:01:26;41.70;39.77;44.50;;
73342;Laerm;61578;52.002;5.468;2023-04-06T01:02:00;41.69;39.61;44.45;;
73342;Laerm;61578;52.002;5.468;2023-04-06T01:02:31;41.70;39.23;43.78;;
73342;Laerm;61578;52.002;5.468;2023-04-06T01:03:02;41.56;39.77;44.22;;
73342;Laerm;61578;52.002;5.468;2023-04-06T01:03:36;42.76;39.86;45.00;;
73342;Laerm;61578;52.002;5.468;2023-04-06T01:04:07;44.62;41.12;49.70;;
73342;Laerm;61578;52.002;5.468;2023-04-06T01:04:38;43.50;40.65;48.95;;
73342;Laerm;61578;52.002;5.468;2023-04-06T01:05:09;41.69;39.52;44.33;;
73342;Laerm;61578;52.002;5.468;2023-04-06T01:06:00;41.66;39.34;44.73;;
73342;Laerm;61578;52.002;5.468;2023-04-06T01:06:31;41.55;39.46;43.84;;
73342;Laerm;61578;52.002;5.468;2023-04-06T01:07:02;41.65;39.48;44.28;;
73342;Laerm;61578;52.002;5.468;2023-04-06T01:07:33;41.58;39.86;43.97;;
73342;Laerm;61578;52.002;5.468;2023-04-06T01:08:03;41.45;39.66;43.94;;
73342;Laerm;61578;52.002;5.468;2023-04-06T01:08:34;41.66;39.64;44.12;;
73342;Laerm;61578;52.002;5.468;2023-04-06T01:09:05;41.62;39.42;44.25;;
73342;Laerm;61578;52.002;5.468;2023-04-06T01:09:35;41.61;39.41;43.97;;
73342;Laerm;61578;52.002;5.468;2023-04-06T01:10:07;41.61;39.52;44.21;;
73342;Laerm;61578;52.002;5.468;2023-04-06T01:10:37;41.45;39.73;43.82;;
73342;Laerm;61578;52.002;5.468;2023-04-06T01:11:08;41.69;39.67;44.05;;
73342;Laerm;61578;52.002;5.468;2023-04-06T01:11:39;41.62;39.84;44.01;;
73342;Laerm;61578;52.002;5.468;2023-04-06T01:12:13;41.55;39.77;43.65;;
73342;Laerm;61578;52.002;5.468;2023-04-06T01:12:43;41.69;39.76;44.43;;
73342;Laerm;61578;52.002;5.468;2023-04-06T01:13:18;41.61;39.64;44.08;;
73342;Laerm;61578;52.002;5.468;2023-04-06T01:13:48;41.70;39.57;45.11;;
73342;Laerm;61578;52.002;5.468;2023-04-06T01:14:20;41.66;39.56;44.41;;
73342;Laerm;61578;52.002;5.468;2023-04-06T01:14:51;41.64;39.31;44.64;;
73342;Laerm;61578;52.002;5.468;2023-04-06T01:15:26;41.65;39.73;44.84;;
73342;Laerm;61578;52.002;5.468;2023-04-06T01:15:59;41.68;39.78;44.28;;
73342;Laerm;61578;52.002;5.468;2023-04-06T01:16:30;41.61;39.75;44.67;;
73342;Laerm;61578;52.002;5.468;2023-04-06T01:17:01;41.60;39.73;44.17;;
73342;Laerm;61578;52.002;5.468;2023-04-06T01:17:32;41.58;39.71;44.06;;
73342;Laerm;61578;52.002;5.468;2023-04-06T01:18:02;41.61;39.90;44.51;;
73342;Laerm;61578;52.002;5.468;2023-04-06T01:18:35;41.64;39.56;44.47;;
73342;Laerm;61578;52.002;5.468;2023-04-06T01:19:10;41.72;39.51;44.06;;
73342;Laerm;61578;52.002;5.468;2023-04-06T01:19:44;41.62;39.74;43.93;;
73342;Laerm;61578;52.002;5.468;2023-04-06T01:20:15;41.65;39.78;44.08;;
73342;Laerm;61578;52.002;5.468;2023-04-06T01:20:46;41.61;39.79;44.03;;
73342;Laerm;61578;52.002;5.468;2023-04-06T01:21:17;41.62;39.66;44.11;;
73342;Laerm;61578;52.002;5.468;2023-04-06T01:21:48;41.53;39.55;44.62;;
73342;Laerm;61578;52.002;5.468;2023-04-06T01:22:20;41.63;39.77;45.20;;
73342;Laerm;61578;52.002;5.468;2023-04-06T01:22:50;41.43;39.52;43.94;;
73342;Laerm;61578;52.002;5.468;2023-04-06T01:23:21;41.49;39.59;44.48;;
73342;Laerm;61578;52.002;5.468;2023-04-06T01:23:52;41.71;39.89;44.29;;
73342;Laerm;61578;52.002;5.468;2023-04-06T01:24:23;41.69;39.54;43.94;;
73342;Laerm;61578;52.002;5.468;2023-04-06T01:24:53;41.45;39.79;43.86;;
73342;Laerm;61578;52.002;5.468;2023-04-06T01:25:27;41.52;39.67;44.40;;
73342;Laerm;61578;52.002;5.468;2023-04-06T01:25:58;41.66;39.83;43.98;;
73342;Laerm;61578;52.002;5.468;2023-04-06T01:26:29;41.61;39.57;43.70;;
73342;Laerm;61578;52.002;5.468;2023-04-06T01:27:02;41.73;39.77;44.20;;
73342;Laerm;61578;52.002;5.468;2023-04-06T01:27:33;41.58;39.66;44.46;;
73342;Laerm;61578;52.002;5.468;2023-04-06T01:28:07;41.64;39.63;44.09;;
73342;Laerm;61578;52.002;5.468;2023-04-06T01:28:37;41.98;39.53;45.32;;
73342;Laerm;61578;52.002;5.468;2023-04-06T01:29:11;41.50;39.82;44.22;;
73342;Laerm;61578;52.002;5.468;2023-04-06T01:29:42;41.60;39.82;44.01;;
73342;Laerm;61578;52.002;5.468;2023-04-06T01:30:13;41.46;39.28;44.01;;
73342;Laerm;61578;52.002;5.468;2023-04-06T01:30:44;41.64;39.33;43.83;;
73342;Laerm;61578;52.002;5.468;2023-04-06T01:31:15;41.67;39.89;43.85;;
73342;Laerm;61578;52.002;5.468;2023-04-06T01:31:46;41.57;39.24;44.34;;
73342;Laerm;61578;52.002;5.468;2023-04-06T01:32:19;41.42;39.71;44.68;;
73342;Laerm;61578;52.002;5.468;2023-04-06T01:32:50;41.66;39.46;44.17;;
73342;Laerm;61578;52.002;5.468;2023-04-06T01:33:21;41.64;39.53;44.65;;
73342;Laerm;61578;52.002;5.468;2023-04-06T01:33:54;41.45;39.29;44.33;;
73342;Laerm;61578;52.002;5.468;2023-04-06T01:34:26;41.56;39.62;44.40;;
73342;Laerm;61578;52.002;5.468;2023-04-06T01:34:59;41.46;39.61;43.93;;
73342;Laerm;61578;52.002;5.468;2023-04-06T01:35:35;41.60;39.33;44.28;;
73342;Laerm;61578;52.002;5.468;2023-04-06T01:36:07;41.47;39.61;44.33;;
73342;Laerm;61578;52.002;5.468;2023-04-06T01:36:37;42.21;39.94;46.37;;
73342;Laerm;61578;52.002;5.468;2023-04-06T01:37:08;41.67;39.80;44.23;;
73342;Laerm;61578;52.002;5.468;2023-04-06T01:37:39;41.61;39.67;44.01;;
73342;Laerm;61578;52.002;5.468;2023-04-06T01:38:10;41.59;39.73;44.29;;
73342;Laerm;61578;52.002;5.468;2023-04-06T01:38:41;41.65;39.63;44.35;;
73342;Laerm;61578;52.002;5.468;2023-04-06T01:39:12;41.48;39.55;43.96;;
73342;Laerm;61578;52.002;5.468;2023-04-06T01:39:44;41.43;39.39;43.65;;
73342;Laerm;61578;52.002;5.468;2023-04-06T01:40:15;41.59;39.56;44.03;;
73342;Laerm;61578;52.002;5.468;2023-04-06T01:40:46;41.32;39.42;43.42;;
73342;Laerm;61578;52.002;5.468;2023-04-06T01:41:17;41.17;39.36;43.60;;
73342;Laerm;61578;52.002;5.468;2023-04-06T01:41:47;41.36;39.15;44.19;;
73342;Laerm;61578;52.002;5.468;2023-04-06T01:42:18;41.50;39.55;44.14;;
73342;Laerm;61578;52.002;5.468;2023-04-06T01:42:49;41.45;39.66;44.09;;
73342;Laerm;61578;52.002;5.468;2023-04-06T01:43:20;41.55;39.50;44.51;;
73342;Laerm;61578;52.002;5.468;2023-04-06T01:43:51;41.48;39.11;44.36;;
73342;Laerm;61578;52.002;5.468;2023-04-06T01:44:24;41.56;39.54;44.61;;
73342;Laerm;61578;52.002;5.468;2023-04-06T01:44:55;41.39;39.37;43.77;;
73342;Laerm;61578;52.002;5.468;2023-04-06T01:45:26;41.19;39.42;43.93;;
73342;Laerm;61578;52.002;5.468;2023-04-06T01:45:57;41.22;38.64;43.56;;
73342;Laerm;61578;52.002;5.468;2023-04-06T01:46:28;41.49;39.43;44.43;;
73342;Laerm;61578;52.002;5.468;2023-04-06T01:46:59;41.18;39.37;43.93;;
73342;Laerm;61578;52.002;5.468;2023-04-06T01:47:30;41.13;39.29;43.45;;
73342;Laerm;61578;52.002;5.468;2023-04-06T01:48:01;41.36;39.37;43.62;;
73342;Laerm;61578;52.002;5.468;2023-04-06T01:48:32;41.42;39.41;43.78;;
73342;Laerm;61578;52.002;5.468;2023-04-06T01:49:03;41.44;39.48;44.56;;
73342;Laerm;61578;52.002;5.468;2023-04-06T01:49:33;41.40;39.45;43.78;;
73342;Laerm;61578;52.002;5.468;2023-04-06T01:50:05;41.17;38.84;43.74;;
73342;Laerm;61578;52.002;5.468;2023-04-06T01:50:36;41.43;39.38;43.63;;
73342;Laerm;61578;52.002;5.468;2023-04-06T01:51:07;41.44;39.51;43.91;;
73342;Laerm;61578;52.002;5.468;2023-04-06T01:51:40;41.42;39.29;44.26;;
73342;Laerm;61578;52.002;5.468;2023-04-06T01:52:11;41.59;39.59;43.98;;
73342;Laerm;61578;52.002;5.468;2023-04-06T01:52:42;41.58;39.50;44.02;;
73342;Laerm;61578;52.002;5.468;2023-04-06T01:53:13;41.24;39.15;43.85;;
73342;Laerm;61578;52.002;5.468;2023-04-06T01:53:45;41.52;39.68;44.73;;
73342;Laerm;61578;52.002;5.468;2023-04-06T01:54:15;41.36;39.25;45.10;;
73342;Laerm;61578;52.002;5.468;2023-04-06T01:54:46;41.24;39.29;43.85;;
73342;Laerm;61578;52.002;5.468;2023-04-06T01:55:17;41.56;39.09;44.30;;
73342;Laerm;61578;52.002;5.468;2023-04-06T01:55:48;41.37;39.47;44.20;;
73342;Laerm;61578;52.002;5.468;2023-04-06T01:56:19;41.17;39.32;43.55;;
73342;Laerm;61578;52.002;5.468;2023-04-06T01:56:50;41.58;39.40;44.25;;
73342;Laerm;61578;52.002;5.468;2023-04-06T01:57:21;41.26;39.42;43.68;;
73342;Laerm;61578;52.002;5.468;2023-04-06T01:57:52;41.39;39.26;43.90;;
73342;Laerm;61578;52.002;5.468;2023-04-06T01:58:23;41.32;39.33;44.10;;
73342;Laerm;61578;52.002;5.468;2023-04-06T01:58:54;41.48;39.60;44.01;;
73342;Laerm;61578;52.002;5.468;2023-04-06T01:59:25;41.39;39.31;44.06;;
73342;Laerm;61578;52.002;5.468;2023-04-06T01:59:56;41.36;39.38;43.96;;
73342;Laerm;61578;52.002;5.468;2023-04-06T02:00:26;41.49;39.58;43.97;;
73342;Laerm;61578;52.002;5.468;2023-04-06T02:01:03;41.31;39.27;43.96;;
73342;Laerm;61578;52.002;5.468;2023-04-06T02:01:33;41.52;39.68;44.09;;
73342;Laerm;61578;52.002;5.468;2023-04-06T02:02:04;41.49;39.71;43.91;;
73342;Laerm;61578;52.002;5.468;2023-04-06T02:02:35;41.60;39.55;44.47;;
73342;Laerm;61578;52.002;5.468;2023-04-06T02:03:06;41.34;39.33;44.11;;
73342;Laerm;61578;52.002;5.468;2023-04-06T02:03:37;41.49;39.46;44.61;;
73342;Laerm;61578;52.002;5.468;2023-04-06T02:04:07;41.35;39.50;43.43;;
73342;Laerm;61578;52.002;5.468;2023-04-06T02:04:39;41.64;39.39;44.11;;
73342;Laerm;61578;52.002;5.468;2023-04-06T02:05:10;41.19;39.31;43.87;;
73342;Laerm;61578;52.002;5.468;2023-04-06T02:05:43;41.62;39.48;43.84;;
73342;Laerm;61578;52.002;5.468;2023-04-06T02:06:13;41.50;39.41;44.26;;
73342;Laerm;61578;52.002;5.468;2023-04-06T02:06:44;41.60;39.33;44.64;;
73342;Laerm;61578;52.002;5.468;2023-04-06T02:07:15;41.26;39.32;43.99;;
73342;Laerm;61578;52.002;5.468;2023-04-06T02:07:46;41.48;39.11;44.19;;
73342;Laerm;61578;52.002;5.468;2023-04-06T02:08:16;41.22;38.70;43.72;;
73342;Laerm;61578;52.002;5.468;2023-04-06T02:08:47;41.42;39.24;43.88;;
73342;Laerm;61578;52.002;5.468;2023-04-06T02:09:17;41.28;39.00;44.32;;
73342;Laerm;61578;52.002;5.468;2023-04-06T02:09:56;41.26;39.26;43.67;;
73342;Laerm;61578;52.002;5.468;2023-04-06T02:10:27;41.37;39.36;44.20;;
73342;Laerm;61578;52.002;5.468;2023-04-06T02:10:58;41.29;39.37;44.18;;
73342;Laerm;61578;52.002;5.468;2023-04-06T02:11:31;41.60;39.24;44.79;;
73342;Laerm;61578;52.002;5.468;2023-04-06T02:12:05;41.40;39.26;44.61;;
73342;Laerm;61578;52.002;5.468;2023-04-06T02:12:39;41.28;38.96;43.97;;
73342;Laerm;61578;52.002;5.468;2023-04-06T02:13:09;41.58;39.53;44.34;;
73342;Laerm;61578;52.002;5.468;2023-04-06T02:13:40;41.45;39.40;45.34;;
73342;Laerm;61578;52.002;5.468;2023-04-06T02:14:11;41.56;39.45;43.98;;
73342;Laerm;61578;52.002;5.468;2023-04-06T02:14:42;41.12;38.90;44.08;;
73342;Laerm;61578;52.002;5.468;2023-04-06T02:15:13;41.22;39.05;43.61;;
73342;Laerm;61578;52.002;5.468;2023-04-06T02:15:43;41.48;39.44;44.14;;
73342;Laerm;61578;52.002;5.468;2023-04-06T02:16:14;41.43;39.28;43.73;;
73342;Laerm;61578;52.002;5.468;2023-04-06T02:16:49;41.37;39.26;44.05;;
73342;Laerm;61578;52.002;5.468;2023-04-06T02:17:20;41.24;39.05;44.14;;
73342;Laerm;61578;52.002;5.468;2023-04-06T02:17:52;41.09;38.71;43.61;;
73342;Laerm;61578;52.002;5.468;2023-04-06T02:18:23;41.36;39.41;44.19;;
73342;Laerm;61578;52.002;5.468;2023-04-06T02:18:53;41.48;39.57;43.88;;
73342;Laerm;61578;52.002;5.468;2023-04-06T02:19:24;41.00;38.82;43.76;;
73342;Laerm;61578;52.002;5.468;2023-04-06T02:19:58;41.36;38.81;43.64;;
73342;Laerm;61578;52.002;5.468;2023-04-06T02:20:29;41.28;39.08;44.23;;
73342;Laerm;61578;52.002;5.468;2023-04-06T02:21:00;41.48;39.60;44.06;;
73342;Laerm;61578;52.002;5.468;2023-04-06T02:21:31;41.15;39.13;43.61;;
73342;Laerm;61578;52.002;5.468;2023-04-06T02:22:01;41.17;39.09;43.92;;
73342;Laerm;61578;52.002;5.468;2023-04-06T02:22:32;41.09;39.27;43.58;;
73342;Laerm;61578;52.002;5.468;2023-04-06T02:23:03;41.31;39.38;43.48;;
73342;Laerm;61578;52.002;5.468;2023-04-06T02:23:34;41.33;39.16;44.09;;
73342;Laerm;61578;52.002;5.468;2023-04-06T02:24:05;41.08;38.77;44.27;;
73342;Laerm;61578;52.002;5.468;2023-04-06T02:24:35;41.08;38.91;44.38;;
73342;Laerm;61578;52.002;5.468;2023-04-06T02:25:12;41.43;39.38;44.00;;
73342;Laerm;61578;52.002;5.468;2023-04-06T02:25:43;41.38;39.18;44.53;;
73342;Laerm;61578;52.002;5.468;2023-04-06T02:26:14;41.41;39.58;44.47;;
73342;Laerm;61578;52.002;5.468;2023-04-06T02:26:45;41.15;38.77;43.81;;
73342;Laerm;61578;52.002;5.468;2023-04-06T02:27:16;41.32;39.15;44.29;;
73342;Laerm;61578;52.002;5.468;2023-04-06T02:27:46;41.10;38.81;43.76;;
73342;Laerm;61578;52.002;5.468;2023-04-06T02:28:17;41.51;39.41;44.37;;
73342;Laerm;61578;52.002;5.468;2023-04-06T02:28:48;41.49;39.52;44.37;;
73342;Laerm;61578;52.002;5.468;2023-04-06T02:29:21;41.20;38.85;43.84;;
73342;Laerm;61578;52.002;5.468;2023-04-06T02:29:51;41.12;39.07;44.01;;
73342;Laerm;61578;52.002;5.468;2023-04-06T02:30:25;41.51;39.31;44.17;;
73342;Laerm;61578;52.002;5.468;2023-04-06T02:30:58;41.13;38.39;44.14;;
73342;Laerm;61578;52.002;5.468;2023-04-06T02:31:31;41.36;38.84;44.25;;
73342;Laerm;61578;52.002;5.468;2023-04-06T02:32:02;41.41;39.42;44.30;;
73342;Laerm;61578;52.002;5.468;2023-04-06T02:32:33;41.38;38.95;43.79;;
73342;Laerm;61578;52.002;5.468;2023-04-06T02:33:09;41.29;38.75;44.50;;
73342;Laerm;61578;52.002;5.468;2023-04-06T02:33:39;41.37;38.98;43.50;;
73342;Laerm;61578;52.002;5.468;2023-04-06T02:34:10;41.41;39.22;44.23;;
73342;Laerm;61578;52.002;5.468;2023-04-06T02:34:42;41.37;39.14;44.44;;
73342;Laerm;61578;52.002;5.468;2023-04-06T02:35:13;41.40;39.09;43.95;;
73342;Laerm;61578;52.002;5.468;2023-04-06T02:35:44;41.34;38.87;44.03;;
73342;Laerm;61578;52.002;5.468;2023-04-06T02:36:16;41.41;39.38;43.55;;
73342;Laerm;61578;52.002;5.468;2023-04-06T02:36:47;41.39;39.15;44.46;;
73342;Laerm;61578;52.002;5.468;2023-04-06T02:37:17;41.40;39.43;44.37;;
73342;Laerm;61578;52.002;5.468;2023-04-06T02:37:50;41.44;39.29;43.98;;
73342;Laerm;61578;52.002;5.468;2023-04-06T02:38:21;41.46;39.31;44.22;;
73342;Laerm;61578;52.002;5.468;2023-04-06T02:38:52;41.49;39.19;44.18;;
73342;Laerm;61578;52.002;5.468;2023-04-06T02:39:23;41.55;39.45;44.93;;
73342;Laerm;61578;52.002;5.468;2023-04-06T02:39:56;41.35;39.09;44.23;;
73342;Laerm;61578;52.002;5.468;2023-04-06T02:40:30;41.37;39.16;44.10;;
73342;Laerm;61578;52.002;5.468;2023-04-06T02:41:00;41.43;39.46;43.84;;
73342;Laerm;61578;52.002;5.468;2023-04-06T02:41:34;41.45;39.17;44.34;;
73342;Laerm;61578;52.002;5.468;2023-04-06T02:42:04;41.27;38.97;44.11;;
73342;Laerm;61578;52.002;5.468;2023-04-06T02:42:38;41.47;39.25;44.73;;
73342;Laerm;61578;52.002;5.468;2023-04-06T02:43:09;41.86;39.55;44.47;;
73342;Laerm;61578;52.002;5.468;2023-04-06T02:43:40;41.38;39.21;44.23;;
73342;Laerm;61578;52.002;5.468;2023-04-06T02:44:11;41.28;38.99;44.57;;
73342;Laerm;61578;52.002;5.468;2023-04-06T02:44:42;41.32;39.09;43.84;;
73342;Laerm;61578;52.002;5.468;2023-04-06T02:45:14;41.36;39.34;43.83;;
73342;Laerm;61578;52.002;5.468;2023-04-06T02:45:45;41.24;38.45;44.05;;
73342;Laerm;61578;52.002;5.468;2023-04-06T02:46:16;41.24;38.76;44.58;;
73342;Laerm;61578;52.002;5.468;2023-04-06T02:46:46;41.41;39.14;44.09;;
73342;Laerm;61578;52.002;5.468;2023-04-06T02:47:17;41.31;39.30;44.71;;
73342;Laerm;61578;52.002;5.468;2023-04-06T02:47:48;41.53;39.35;44.55;;
73342;Laerm;61578;52.002;5.468;2023-04-06T02:48:19;41.38;38.93;44.39;;
73342;Laerm;61578;52.002;5.468;2023-04-06T02:48:50;41.30;39.08;43.78;;
73342;Laerm;61578;52.002;5.468;2023-04-06T02:49:21;41.16;39.02;43.71;;
73342;Laerm;61578;52.002;5.468;2023-04-06T02:49:51;41.43;39.35;45.02;;
73342;Laerm;61578;52.002;5.468;2023-04-06T02:50:22;41.21;39.31;43.98;;
73342;Laerm;61578;52.002;5.468;2023-04-06T02:50:53;41.52;39.44;44.27;;
73342;Laerm;61578;52.002;5.468;2023-04-06T02:51:24;41.16;39.19;44.46;;
73342;Laerm;61578;52.002;5.468;2023-04-06T02:51:55;41.41;39.24;44.69;;
73342;Laerm;61578;52.002;5.468;2023-04-06T02:52:26;41.49;39.63;44.92;;
73342;Laerm;61578;52.002;5.468;2023-04-06T02:52:57;41.25;39.08;43.86;;
73342;Laerm;61578;52.002;5.468;2023-04-06T02:53:31;40.99;39.09;43.92;;
73342;Laerm;61578;52.002;5.468;2023-04-06T02:54:01;41.38;39.19;44.18;;
73342;Laerm;61578;52.002;5.468;2023-04-06T02:54:32;40.99;38.93;43.99;;
73342;Laerm;61578;52.002;5.468;2023-04-06T02:55:03;41.10;38.66;43.60;;
73342;Laerm;61578;52.002;5.468;2023-04-06T02:55:34;41.14;39.06;43.73;;
73342;Laerm;61578;52.002;5.468;2023-04-06T02:56:05;41.36;39.33;43.81;;
73342;Laerm;61578;52.002;5.468;2023-04-06T02:56:36;41.23;38.83;43.92;;
73342;Laerm;61578;52.002;5.468;2023-04-06T02:57:07;41.17;38.81;43.79;;